createdAt,value
2019-06-08T00:00:50.118Z,15.56
2019-06-08T00:03:20.674Z,15.56
2019-06-08T00:05:50.351Z,15.53
2019-06-08T00:08:20.970Z,15.69
2019-06-08T00:10:50.507Z,15.57
2019-06-08T00:13:21.309Z,15.61
2019-06-08T00:15:50.780Z,15.69
2019-06-08T00:18:21.555Z,15.73
2019-06-08T00:20:51.237Z,15.67
2019-06-08T00:23:21.965Z,15.82
2019-06-08T00:25:51.531Z,15.73
2019-06-08T00:28:22.393Z,15.64
2019-06-08T00:30:52.003Z,15.77
2019-06-08T00:33:22.601Z,15.86
2019-06-08T00:35:52.218Z,15.76
2019-06-08T00:38:22.967Z,15.73
2019-06-08T00:40:52.845Z,15.79
2019-06-08T00:43:23.671Z,15.72
2019-06-08T00:45:53.232Z,15.79
2019-06-08T00:48:22.757Z,15.72
2019-06-08T00:50:52.200Z,15.61
2019-06-08T00:53:21.689Z,15.77
2019-06-08T00:55:51.182Z,15.79
2019-06-08T00:58:21.922Z,15.65
2019-06-08T01:00:51.502Z,15.76
2019-06-08T01:03:21.685Z,15.65
2019-06-08T01:05:51.223Z,15.56
2019-06-08T01:08:22.152Z,15.64
2019-06-08T01:10:51.954Z,15.60
2019-06-08T01:13:22.832Z,15.63
2019-06-08T01:15:52.466Z,15.66
2019-06-08T01:18:22.958Z,15.57
2019-06-08T01:20:53.309Z,15.54
2019-06-08T01:23:23.487Z,15.61
2019-06-08T01:25:52.968Z,15.70
2019-06-08T01:28:22.525Z,15.57
2019-06-08T01:30:52.360Z,15.55
2019-06-08T01:33:22.510Z,15.45
2019-06-08T01:35:52.005Z,15.41
2019-06-08T01:38:21.507Z,15.42
2019-06-08T01:40:51.005Z,15.31
2019-06-08T01:43:21.756Z,15.31
2019-06-08T01:45:51.361Z,15.32
2019-06-08T01:48:22.344Z,15.24
2019-06-08T01:50:51.896Z,15.25
2019-06-08T01:53:22.682Z,15.30
2019-06-08T01:55:52.246Z,15.08
2019-06-08T01:58:23.262Z,15.01
2019-06-08T02:00:52.769Z,14.95
2019-06-08T02:03:22.270Z,14.97
2019-06-08T02:05:51.749Z,15.01
2019-06-08T02:08:21.791Z,14.88
2019-06-08T02:10:51.291Z,14.91
2019-06-08T02:13:20.799Z,14.76
2019-06-08T02:15:50.262Z,14.81
2019-06-08T02:18:35.629Z,14.84
2019-06-08T02:20:50.944Z,14.84
2019-06-08T02:23:20.491Z,14.72
2019-06-08T02:25:49.986Z,14.74
2019-06-08T02:28:19.464Z,14.76
2019-06-08T02:30:48.940Z,14.71
2019-06-08T02:33:18.446Z,14.85
2019-06-08T02:35:47.939Z,14.81
2019-06-08T02:38:17.424Z,14.78
2019-06-08T02:40:46.984Z,14.84
2019-06-08T02:43:16.494Z,14.75
2019-06-08T02:45:46.038Z,14.67
2019-06-08T02:48:15.534Z,14.64
2019-06-08T02:50:57.416Z,14.70
2019-06-08T02:53:29.593Z,14.63
2019-06-08T02:55:59.727Z,14.64
2019-06-08T02:58:31.116Z,14.54
2019-06-08T03:01:01.197Z,14.53
2019-06-08T03:03:33.816Z,14.54
2019-06-08T03:06:03.918Z,14.63
2019-06-08T03:08:39.099Z,14.63
2019-06-08T03:11:09.246Z,14.50
2019-06-08T03:13:42.364Z,14.61
2019-06-08T03:16:11.223Z,14.61
2019-06-08T03:18:42.579Z,14.53
2019-06-08T03:21:11.911Z,14.54
2019-06-08T03:23:43.226Z,14.57
2019-06-08T03:26:12.642Z,14.56
2019-06-08T03:28:44.231Z,14.46
2019-06-08T03:31:13.408Z,14.44
2019-06-08T03:33:53.340Z,14.42
2019-06-08T03:36:14.097Z,14.51
2019-06-08T03:38:44.750Z,14.45
2019-06-08T03:41:14.336Z,14.49
2019-06-08T03:43:43.868Z,14.43
2019-06-08T03:46:13.386Z,14.63
2019-06-08T03:48:45.775Z,14.44
2019-06-08T03:51:14.075Z,14.55
2019-06-08T03:53:45.076Z,14.56
2019-06-08T03:56:14.787Z,14.50
2019-06-08T03:58:45.804Z,14.48
2019-06-08T04:01:15.517Z,14.53
2019-06-08T04:03:46.199Z,14.55
2019-06-08T04:06:15.975Z,14.64
2019-06-08T04:08:47.469Z,14.48
2019-06-08T04:11:16.650Z,14.61
2019-06-08T04:13:47.105Z,14.60
2019-06-08T04:16:16.983Z,14.50
2019-06-08T04:18:46.956Z,14.53
2019-06-08T04:21:16.535Z,14.59
2019-06-08T04:23:47.187Z,14.45
2019-06-08T04:26:16.871Z,14.67
2019-06-08T04:28:47.323Z,14.55
2019-06-08T04:31:17.607Z,14.59
2019-06-08T04:33:47.101Z,14.64
2019-06-08T04:36:16.566Z,14.77
2019-06-08T04:38:47.630Z,14.67
2019-06-08T04:41:17.265Z,14.57
2019-06-08T04:43:47.813Z,14.68
2019-06-08T04:46:17.959Z,14.78
2019-06-08T04:48:49.672Z,14.66
2019-06-08T04:51:18.655Z,14.59
2019-06-08T04:53:49.544Z,14.48
2019-06-08T04:56:19.299Z,14.51
2019-06-08T04:58:51.041Z,14.62
2019-06-08T05:01:20.007Z,14.53
2019-06-08T05:03:50.125Z,14.68
2019-06-08T05:06:19.929Z,14.80
2019-06-08T05:08:49.738Z,14.66
2019-06-08T05:11:19.317Z,14.76
2019-06-08T05:13:49.658Z,14.84
2019-06-08T05:16:19.520Z,14.85
2019-06-08T05:18:49.656Z,15.06
2019-06-08T05:21:19.377Z,15.18
2019-06-08T05:23:57.993Z,15.43
2019-06-08T05:26:20.142Z,15.31
2019-06-08T05:28:49.791Z,15.04
2019-06-08T05:31:19.270Z,14.70
2019-06-08T05:33:49.723Z,14.63
2019-06-08T05:36:19.346Z,14.87
2019-06-08T05:38:49.881Z,14.74
2019-06-08T05:41:19.567Z,14.89
2019-06-08T05:43:49.994Z,15.03
2019-06-08T05:46:19.619Z,15.19
2019-06-08T05:48:50.334Z,15.13
2019-06-08T05:51:20.059Z,14.83
2019-06-08T05:53:50.189Z,15.10
2019-06-08T05:56:20.194Z,15.27
2019-06-08T05:58:50.353Z,15.28
2019-06-08T06:01:20.030Z,15.28
2019-06-08T06:03:51.811Z,15.33
2019-06-08T06:06:20.955Z,15.57
2019-06-08T06:08:50.923Z,15.50
2019-06-08T06:11:20.501Z,15.35
2019-06-08T06:13:51.357Z,15.72
2019-06-08T06:16:21.066Z,15.67
2019-06-08T06:18:52.226Z,16.01
2019-06-08T06:21:21.955Z,16.15
2019-06-08T06:23:51.643Z,16.25
2019-06-08T06:26:21.132Z,16.39
2019-06-08T06:28:51.793Z,16.40
2019-06-08T06:31:21.440Z,15.72
2019-06-08T06:33:52.284Z,15.56
2019-06-08T06:36:21.974Z,15.68
2019-06-08T06:38:52.232Z,15.58
2019-06-08T06:41:21.827Z,15.70
2019-06-08T06:43:52.170Z,15.86
2019-06-08T06:46:21.807Z,15.59
2019-06-08T06:48:52.561Z,15.52
2019-06-08T06:51:26.256Z,15.60
2019-06-08T06:53:53.475Z,15.30
2019-06-08T06:56:22.947Z,15.56
2019-06-08T06:58:53.588Z,15.53
2019-06-08T07:01:23.275Z,15.50
2019-06-08T07:03:54.236Z,15.65
2019-06-08T07:06:23.801Z,15.86
2019-06-08T07:08:54.445Z,15.90
2019-06-08T07:11:24.239Z,16.00
2019-06-08T07:13:55.028Z,15.86
2019-06-08T07:16:24.614Z,15.93
2019-06-08T07:18:54.511Z,15.95
2019-06-08T07:21:24.186Z,16.15
2019-06-08T07:23:55.909Z,15.67
2019-06-08T07:26:24.909Z,15.69
2019-06-08T07:28:55.380Z,15.77
2019-06-08T07:31:25.085Z,15.69
2019-06-08T07:33:55.697Z,15.83
2019-06-08T07:36:25.286Z,15.47
2019-06-08T07:38:55.503Z,15.58
2019-06-08T07:41:25.120Z,15.98
2019-06-08T07:43:54.611Z,15.83
2019-06-08T07:46:24.106Z,15.77
2019-06-08T07:48:54.419Z,15.70
2019-06-08T07:51:24.422Z,15.70
2019-06-08T07:53:53.992Z,15.85
2019-06-08T07:56:23.466Z,16.16
2019-06-08T07:58:53.283Z,16.74
2019-06-08T08:01:35.862Z,16.42
2019-06-08T08:03:54.227Z,16.87
2019-06-08T08:06:23.720Z,17.22
2019-06-08T08:08:54.672Z,16.88
2019-06-08T08:11:24.988Z,16.90
2019-06-08T08:13:54.840Z,16.31
2019-06-08T08:16:24.351Z,16.30
2019-06-08T08:18:53.825Z,16.17
2019-06-08T08:21:26.423Z,16.43
2019-06-08T08:23:55.934Z,16.53
2019-06-08T08:26:27.270Z,16.86
2019-06-08T08:29:01.511Z,17.28
2019-06-08T08:31:28.424Z,17.42
2019-06-08T08:34:00.858Z,17.20
2019-06-08T08:36:31.260Z,17.73
2019-06-08T08:39:02.352Z,17.63
2019-06-08T08:41:31.575Z,17.01
2019-06-08T08:44:04.281Z,16.89
2019-06-08T08:46:32.274Z,16.51
2019-06-08T08:49:09.504Z,17.01
2019-06-08T08:51:32.950Z,17.30
2019-06-08T08:54:05.242Z,16.82
2019-06-08T08:56:34.892Z,17.10
2019-06-08T08:59:04.618Z,17.40
2019-06-08T09:01:34.101Z,16.89
2019-06-08T09:04:05.150Z,17.56
2019-06-08T09:06:34.981Z,17.28
2019-06-08T09:09:08.664Z,17.22
2019-06-08T09:11:40.830Z,17.18
2019-06-08T09:14:13.791Z,17.55
2019-06-08T09:16:39.607Z,17.46
2019-06-08T09:19:09.108Z,17.41
2019-06-08T09:21:38.597Z,17.27
2019-06-08T09:24:08.142Z,16.86
2019-06-08T09:26:38.183Z,17.20
2019-06-08T09:29:11.057Z,17.49
2019-06-08T09:31:39.258Z,17.45
2019-06-08T09:34:14.763Z,17.71
2019-06-08T09:36:40.810Z,17.47
2019-06-08T09:39:12.992Z,17.87
2019-06-08T09:41:41.597Z,18.46
2019-06-08T09:44:11.927Z,18.25
2019-06-08T09:46:41.543Z,18.05
2019-06-08T09:49:11.779Z,18.45
2019-06-08T09:51:41.666Z,19.20
2019-06-08T09:54:12.839Z,19.07
2019-06-08T09:56:42.343Z,19.20
2019-06-08T09:59:14.912Z,19.67
2019-06-08T10:01:43.008Z,20.07
2019-06-08T10:04:12.497Z,20.33
2019-06-08T10:06:41.975Z,19.05
2019-06-08T10:09:11.605Z,19.85
2019-06-08T10:11:41.093Z,20.31
2019-06-08T10:14:12.475Z,20.06
2019-06-08T10:16:41.832Z,20.65
2019-06-08T10:19:11.322Z,20.59
2019-06-08T10:21:43.173Z,20.55
2019-06-08T10:24:12.049Z,20.10
2019-06-08T10:26:41.593Z,20.37
2019-06-08T10:29:11.066Z,20.37
2019-06-08T10:31:43.607Z,20.20
2019-06-08T10:34:12.106Z,20.50
2019-06-08T10:36:41.749Z,20.57
2019-06-08T10:39:12.096Z,20.89
2019-06-08T10:41:41.722Z,19.92
2019-06-08T10:44:13.802Z,20.24
2019-06-08T10:46:42.507Z,20.43
2019-06-08T10:49:14.458Z,20.83
2019-06-08T10:51:43.214Z,21.34
2019-06-08T10:54:12.726Z,21.96
2019-06-08T10:56:42.224Z,21.53
2019-06-08T10:59:12.322Z,21.60
2019-06-08T11:01:42.246Z,21.37
2019-06-08T11:04:11.797Z,21.50
2019-06-08T11:06:41.240Z,22.23
2019-06-08T11:09:13.238Z,21.74
2019-06-08T11:11:42.081Z,22.15
2019-06-08T11:14:12.929Z,20.85
2019-06-08T11:16:42.988Z,20.66
2019-06-08T11:19:13.731Z,21.78
2019-06-08T11:21:43.547Z,22.09
2019-06-08T11:24:23.731Z,21.37
2019-06-08T11:26:44.818Z,22.10
2019-06-08T11:29:14.319Z,21.95
2019-06-08T11:31:43.851Z,21.19
2019-06-08T11:34:13.364Z,22.28
2019-06-08T11:36:42.827Z,22.10
2019-06-08T11:39:12.879Z,21.94
2019-06-08T11:41:42.513Z,22.25
2019-06-08T11:44:14.652Z,21.75
2019-06-08T11:46:43.275Z,21.77
2019-06-08T11:49:15.027Z,22.22
2019-06-08T11:51:44.082Z,22.42
2019-06-08T11:54:32.013Z,23.00
2019-06-08T11:56:45.223Z,23.48
2019-06-08T11:59:15.749Z,22.38
2019-06-08T12:01:45.239Z,21.60
2019-06-08T12:04:14.711Z,21.39
2019-06-08T12:06:44.198Z,21.82
2019-06-08T12:09:14.124Z,22.08
2019-06-08T12:11:43.633Z,21.19
2019-06-08T12:14:14.401Z,22.17
2019-06-08T12:16:43.974Z,22.15
2019-06-08T12:19:16.712Z,22.52
2019-06-08T12:21:44.662Z,22.52
2019-06-08T12:24:14.495Z,22.19
2019-06-08T12:26:44.036Z,22.66
2019-06-08T12:29:14.992Z,22.08
2019-06-08T12:31:44.767Z,22.81
2019-06-08T12:34:16.239Z,22.31
2019-06-08T12:36:48.135Z,22.75
2019-06-08T12:39:19.689Z,23.52
2019-06-08T12:41:48.429Z,23.21
2019-06-08T12:44:20.360Z,24.63
2019-06-08T12:46:49.186Z,23.63
2019-06-08T12:49:19.202Z,23.14
2019-06-08T12:51:51.736Z,23.18
2019-06-08T12:54:21.220Z,22.15
2019-06-08T12:56:50.708Z,23.24
2019-06-08T12:59:22.827Z,23.02
2019-06-08T13:01:51.467Z,23.19
2019-06-08T13:04:23.354Z,22.28
2019-06-08T13:06:52.182Z,22.83
2019-06-08T13:09:21.670Z,22.63
2019-06-08T13:11:51.235Z,21.36
2019-06-08T13:14:20.889Z,22.04
2019-06-08T13:16:53.056Z,22.41
2019-06-08T13:19:21.605Z,22.17
2019-06-08T13:21:51.070Z,22.00
2019-06-08T13:24:20.571Z,22.45
2019-06-08T13:26:50.741Z,23.20
2019-06-08T13:29:22.008Z,23.25
2019-06-08T13:31:51.762Z,23.16
2019-06-08T13:34:24.077Z,22.82
2019-06-08T13:36:52.504Z,23.30
2019-06-08T13:39:23.123Z,22.23
2019-06-08T13:41:52.737Z,22.22
2019-06-08T13:44:22.239Z,21.27
2019-06-08T13:46:51.815Z,21.74
2019-06-08T13:49:25.516Z,21.96
2019-06-08T13:51:52.487Z,22.60
2019-06-08T13:54:23.043Z,21.27
2019-06-08T13:56:53.141Z,21.64
2019-06-08T13:59:26.271Z,22.42
2019-06-08T14:01:53.824Z,22.06
2019-06-08T14:04:23.754Z,22.07
2019-06-08T14:06:53.587Z,21.03
2019-06-08T14:09:23.406Z,21.23
2019-06-08T14:11:52.878Z,21.46
2019-06-08T14:14:23.052Z,21.28
2019-06-08T14:16:53.729Z,20.95
2019-06-08T14:19:24.477Z,20.85
2019-06-08T14:21:54.408Z,20.54
2019-06-08T14:24:28.034Z,20.84
2019-06-08T14:26:55.109Z,21.18
2019-06-08T14:29:25.963Z,20.63
2019-06-08T14:31:57.601Z,20.94
2019-06-08T14:34:29.068Z,21.54
2019-06-08T14:36:59.186Z,20.94
2019-06-08T14:39:31.538Z,21.05
2019-06-08T14:42:00.195Z,21.13
2019-06-08T14:44:32.186Z,21.53
2019-06-08T14:47:02.591Z,21.41
2019-06-08T14:49:34.974Z,21.24
2019-06-08T14:52:03.292Z,21.34
2019-06-08T14:54:35.158Z,21.10
2019-06-08T14:57:03.979Z,20.45
2019-06-08T14:59:33.480Z,20.61
2019-06-08T15:02:03.440Z,20.70
2019-06-08T15:04:36.530Z,21.26
2019-06-08T15:07:04.200Z,21.60
2019-06-08T15:09:33.845Z,21.72
2019-06-08T15:12:03.399Z,21.83
2019-06-08T15:14:35.281Z,21.76
2019-06-08T15:17:04.098Z,22.05
2019-06-08T15:19:33.562Z,21.66
2019-06-08T15:22:03.302Z,22.09
2019-06-08T15:24:33.155Z,22.55
2019-06-08T15:27:02.656Z,22.01
2019-06-08T15:29:32.843Z,21.57
2019-06-08T15:32:02.384Z,22.09
2019-06-08T15:34:33.121Z,21.31
2019-06-08T15:37:02.734Z,21.22
2019-06-08T15:39:34.061Z,21.04
2019-06-08T15:42:03.423Z,21.59
2019-06-08T15:44:33.911Z,21.87
2019-06-08T15:47:03.487Z,21.84
2019-06-08T15:52:14.384Z,21.28
2019-06-08T15:54:43.854Z,21.37
2019-06-08T15:57:13.324Z,20.81
2019-06-08T15:59:42.825Z,20.88
2019-06-08T16:02:12.295Z,20.90
2019-06-08T16:04:42.056Z,20.84
2019-06-08T16:07:11.588Z,21.06
2019-06-08T16:09:41.065Z,21.15
2019-06-08T16:12:10.549Z,20.95
2019-06-08T16:14:41.490Z,20.65
2019-06-08T16:17:11.191Z,20.90
2019-06-08T16:19:40.674Z,21.07
2019-06-08T16:22:10.157Z,21.19
2019-06-08T16:24:39.632Z,20.83
2019-06-08T16:27:09.119Z,20.86
2019-06-08T16:29:39.269Z,20.82
2019-06-08T16:32:09.055Z,21.00
2019-06-08T16:34:39.617Z,21.51
2019-06-08T16:37:09.299Z,21.39
2019-06-08T16:39:39.051Z,21.21
2019-06-08T16:42:08.607Z,20.97
2019-06-08T16:44:38.612Z,21.24
2019-06-08T16:47:08.169Z,21.15
2019-06-08T16:49:37.646Z,21.03
2019-06-08T16:52:07.161Z,20.90
2019-06-08T16:54:37.276Z,20.97
2019-06-08T16:57:10.723Z,20.63
2019-06-08T16:59:38.691Z,20.53
2019-06-08T17:02:08.928Z,20.50
2019-06-08T17:04:39.193Z,20.29
2019-06-08T17:07:08.690Z,20.04
2019-06-08T17:09:38.209Z,20.14
2019-06-08T17:12:07.655Z,20.28
2019-06-08T17:14:38.387Z,19.97
2019-06-08T17:17:08.214Z,19.77
2019-06-08T17:19:38.484Z,19.75
2019-06-08T17:22:08.045Z,19.79
2019-06-08T17:24:38.908Z,19.88
2019-06-08T17:27:08.409Z,19.75
2019-06-08T17:29:39.016Z,19.68
2019-06-08T17:32:08.507Z,19.67
2019-06-08T17:34:38.183Z,19.55
2019-06-08T17:37:07.637Z,19.53
2019-06-08T17:39:37.942Z,19.51
2019-06-08T17:42:07.580Z,19.45
2019-06-08T17:44:38.227Z,19.49
2019-06-08T17:47:07.751Z,19.58
2019-06-08T17:49:38.580Z,19.37
2019-06-08T17:52:08.128Z,19.52
2019-06-08T17:54:38.946Z,19.48
2019-06-08T17:57:08.471Z,19.38
2019-06-08T17:59:37.958Z,19.45
2019-06-08T18:02:10.654Z,19.39
2019-06-08T18:04:40.958Z,19.33
2019-06-08T18:07:10.348Z,19.27
2019-06-08T18:09:41.783Z,19.33
2019-06-08T18:12:11.123Z,19.30
2019-06-08T18:14:43.886Z,19.10
2019-06-08T18:17:13.573Z,19.14
2019-06-08T18:19:46.192Z,19.01
2019-06-08T18:22:15.551Z,18.98
2019-06-08T18:24:47.723Z,18.98
2019-06-08T18:27:18.029Z,18.87
2019-06-08T18:29:48.662Z,18.72
2019-06-08T18:32:18.460Z,18.75
2019-06-08T18:34:48.168Z,18.60
2019-06-08T18:37:18.371Z,18.54
2019-06-08T18:39:49.395Z,18.45
2019-06-08T18:42:20.413Z,18.40
2019-06-08T18:44:49.959Z,18.19
2019-06-08T18:47:19.447Z,18.18
2019-06-08T18:49:49.214Z,18.05
2019-06-08T18:52:18.712Z,17.84
2019-06-08T18:54:49.569Z,17.82
2019-06-08T18:57:19.395Z,17.78
2019-06-08T18:59:52.972Z,17.62
2019-06-08T19:02:20.092Z,17.37
2019-06-08T19:04:49.760Z,17.33
2019-06-08T19:07:19.240Z,17.04
2019-06-08T19:09:49.839Z,16.90
2019-06-08T19:12:19.814Z,16.70
2019-06-08T19:14:52.124Z,16.83
2019-06-08T19:17:21.460Z,16.55
2019-06-08T19:19:52.360Z,16.40
2019-06-08T19:22:22.123Z,16.35
2019-06-08T19:24:51.667Z,16.22
2019-06-08T19:27:21.168Z,15.88
2019-06-08T19:29:51.713Z,16.11
2019-06-08T19:32:21.393Z,16.03
2019-06-08T19:34:54.010Z,15.89
2019-06-08T19:37:22.179Z,15.83
2019-06-08T19:39:51.654Z,15.53
2019-06-08T19:42:35.737Z,15.49
2019-06-08T19:45:00.938Z,15.29
2019-06-08T19:47:23.562Z,15.46
2019-06-08T19:49:54.803Z,15.20
2019-06-08T19:52:24.250Z,14.98
2019-06-08T19:54:54.152Z,15.34
2019-06-08T19:57:23.739Z,15.26
2019-06-08T19:59:53.255Z,14.98
2019-06-08T20:02:22.809Z,14.57
2019-06-08T20:04:53.291Z,14.31
2019-06-08T20:07:23.150Z,14.11
2019-06-08T20:09:53.689Z,13.95
2019-06-08T20:12:23.417Z,13.82
2019-06-08T20:14:53.775Z,13.66
2019-06-08T20:17:23.361Z,13.63
2019-06-08T20:19:53.430Z,13.51
2019-06-08T20:22:23.012Z,13.50
2019-06-08T20:24:55.777Z,13.44
2019-06-08T20:27:24.744Z,13.50
2019-06-08T20:29:54.329Z,13.30
2019-06-08T20:32:23.816Z,13.29
2019-06-08T20:34:53.770Z,13.18
2019-06-08T20:37:23.269Z,13.30
2019-06-08T20:40:05.795Z,13.12
2019-06-08T20:42:23.964Z,12.94
2019-06-08T20:44:53.458Z,12.89
2019-06-08T20:47:22.928Z,12.86
2019-06-08T20:49:53.467Z,12.85
2019-06-08T20:52:22.978Z,13.04
2019-06-08T20:54:53.545Z,13.02
2019-06-08T20:57:23.131Z,12.87
2019-06-08T20:59:54.003Z,12.58
2019-06-08T21:02:23.835Z,12.43
2019-06-08T21:04:55.817Z,12.35
2019-06-08T21:07:24.558Z,12.28
2019-06-08T21:09:55.233Z,12.16
2019-06-08T21:12:25.257Z,12.08
2019-06-08T21:14:55.504Z,12.02
2019-06-08T21:17:27.384Z,12.29
2019-06-08T21:19:57.989Z,12.04
2019-06-08T21:22:27.892Z,11.94
2019-06-08T21:25:00.091Z,11.82
2019-06-08T21:27:29.791Z,11.88
2019-06-08T21:30:06.638Z,11.92
2019-06-08T21:32:30.483Z,12.27
2019-06-08T21:35:00.430Z,11.85
2019-06-08T21:37:29.955Z,11.66
2019-06-08T21:40:03.993Z,11.45
2019-06-08T21:42:30.650Z,11.32
2019-06-08T21:45:02.209Z,11.13
2019-06-08T21:47:31.373Z,11.20
2019-06-08T21:50:00.867Z,11.05
2019-06-08T21:52:30.352Z,10.97
2019-06-08T21:55:00.621Z,10.93
2019-06-08T21:57:30.173Z,11.04
2019-06-08T22:00:21.588Z,10.98
2019-06-08T22:02:30.864Z,11.03
2019-06-08T22:05:04.197Z,10.97
2019-06-08T22:07:31.556Z,11.11
2019-06-08T22:10:01.041Z,10.78
2019-06-08T22:12:30.511Z,10.70
2019-06-08T22:15:01.015Z,10.62
2019-06-08T22:17:30.607Z,10.58
2019-06-08T22:20:01.056Z,10.57
2019-06-08T22:22:30.585Z,10.62
2019-06-08T22:25:01.096Z,10.63
2019-06-08T22:27:30.637Z,10.79
2019-06-08T22:30:01.314Z,10.74
2019-06-08T22:32:31.337Z,10.80
2019-06-08T22:35:01.833Z,10.80
2019-06-08T22:37:31.771Z,10.87
2019-06-08T22:40:01.275Z,10.97
2019-06-08T22:42:30.760Z,10.78
2019-06-08T22:45:02.586Z,10.81
2019-06-08T22:47:32.348Z,10.78
2019-06-08T22:50:02.508Z,10.78
2019-06-08T22:52:33.110Z,10.75
2019-06-08T22:55:06.706Z,10.82
2019-06-08T22:57:33.795Z,11.37
2019-06-08T23:00:14.562Z,10.99
2019-06-08T23:02:35.046Z,11.03
2019-06-08T23:05:09.117Z,10.74
2019-06-08T23:07:37.762Z,10.57
2019-06-08T23:10:09.130Z,10.52
2019-06-08T23:12:38.727Z,10.59
2019-06-08T23:15:09.839Z,10.43
2019-06-08T23:17:39.338Z,10.33
2019-06-08T23:20:09.270Z,10.54
2019-06-08T23:22:38.883Z,10.34
2019-06-08T23:25:09.426Z,10.21
2019-06-08T23:27:39.231Z,10.08
2019-06-08T23:30:10.601Z,10.02
2019-06-08T23:32:40.230Z,9.99
2019-06-08T23:35:09.955Z,9.95
2019-06-08T23:37:39.585Z,10.25
2019-06-08T23:40:09.491Z,10.23
2019-06-08T23:42:39.030Z,10.12
2019-06-08T23:45:10.730Z,10.06
2019-06-08T23:47:40.494Z,9.87
2019-06-08T23:50:11.640Z,9.75
2019-06-08T23:52:41.328Z,9.64
2019-06-08T23:55:11.958Z,9.56
2019-06-08T23:57:41.594Z,9.53
